Time;durP1;ratioP1;P1;durP2;ratioP2;P2;SDS_P1;SDS_P2;PMS_P1;PMS_P2;Temp;Humidity;BMP_temperature;BMP_pressure;BME280_temperature;BME280_humidity;BME280_pressure;Samples;Min_cycle;Max_cycle;Signal;HPM_P1;HPM_P2
2023/07/03 00:01:07;;;;;;;10.68;8.52;;;;;;;15.91;74.83;98197.16;4142444;28;20214;-52
2023/07/03 00:03:13;;;;;;;13.88;8.60;;;;;;;15.85;75.06;98201.09;4151568;28;20280;-52
2023/07/03 00:05:16;;;;;;;10.10;8.05;;;;;;;15.80;75.29;98195.63;4135945;28;20280;-52
2023/07/03 00:07:19;;;;;;;13.25;10.13;;;;;;;15.80;75.40;98194.78;4139795;28;20233;-52
2023/07/03 00:09:21;;;;;;;11.25;9.20;;;;;;;15.81;75.62;98197.25;4135958;28;20675;-53
2023/07/03 00:11:23;;;;;;;8.98;7.82;;;;;;;15.82;75.62;98196.16;4148520;28;20213;-52
2023/07/03 00:13:27;;;;;;;10.38;9.30;;;;;;;15.72;75.79;98193.50;4135475;28;20253;-52
2023/07/03 00:15:29;;;;;;;10.25;9.25;;;;;;;15.74;76.10;98194.03;4136323;28;20213;-52
2023/07/03 00:17:31;;;;;;;14.38;10.27;;;;;;;15.68;76.32;98186.91;4134999;28;20213;-52
2023/07/03 00:19:33;;;;;;;11.02;9.40;;;;;;;15.68;76.76;98195.19;4133980;28;20214;-52
2023/07/03 00:21:43;;;;;;;14.57;10.25;;;;;;;15.47;77.90;98193.72;4136079;28;20201;-52
2023/07/03 00:23:45;;;;;;;13.18;10.13;;;;;;;15.55;77.34;98192.31;4134005;28;20304;-52
2023/07/03 00:25:48;;;;;;;10.38;9.23;;;;;;;15.55;77.02;98198.63;4140841;28;20695;-53
2023/07/03 00:27:50;;;;;;;13.30;10.13;;;;;;;15.55;77.01;98190.34;4138116;28;20268;-52
2023/07/03 00:29:52;;;;;;;10.93;9.50;;;;;;;15.46;77.15;98189.34;4136886;28;20886;-51
2023/07/03 00:31:54;;;;;;;11.90;8.68;;;;;;;15.41;77.04;98192.13;4149040;28;20212;-52
2023/07/03 00:33:58;;;;;;;11.05;9.25;;;;;;;15.39;76.85;98188.84;4147212;28;20217;-53
2023/07/03 00:35:59;;;;;;;11.73;9.98;;;;;;;15.43;77.23;98200.94;4135617;28;20228;-52
2023/07/03 00:38:01;;;;;;;13.48;10.23;;;;;;;15.40;77.18;98196.00;4133782;28;20244;-52
2023/07/03 00:40:06;;;;;;;10.02;8.88;;;;;;;15.38;77.18;98202.91;4147951;28;20260;-52
2023/07/03 00:42:08;;;;;;;10.88;9.88;;;;;;;15.37;77.34;98204.84;4136684;28;20205;-52
2023/07/03 00:44:14;;;;;;;9.95;8.77;;;;;;;15.36;77.59;98183.91;4123735;28;20209;-52
2023/07/03 00:46:16;;;;;;;13.90;9.43;;;;;;;15.26;77.71;98195.00;4148020;28;20239;-53
2023/07/03 00:48:18;;;;;;;10.63;9.45;;;;;;;15.26;78.01;98191.38;4136543;28;20624;-52
2023/07/03 00:50:20;;;;;;;15.65;10.82;;;;;;;15.21;78.32;98200.53;4134220;28;20680;-53
2023/07/03 00:52:22;;;;;;;13.30;10.15;;;;;;;15.14;78.60;98196.44;4147909;28;20741;-52
2023/07/03 00:54:24;;;;;;;13.65;9.73;;;;;;;15.18;78.60;98198.38;4142901;28;20209;-52
2023/07/03 00:56:25;;;;;;;11.15;8.43;;;;;;;15.13;78.85;98194.81;4145590;28;20233;-52
2023/07/03 00:58:27;;;;;;;13.90;8.85;;;;;;;15.17;78.83;98190.38;4135135;28;20271;-52
2023/07/03 01:00:35;;;;;;;10.50;9.05;;;;;;;15.14;79.31;98194.53;4146299;28;20232;-52
2023/07/03 01:02:50;;;;;;;12.40;9.38;;;;;;;15.14;79.49;98197.28;4135328;28;20206;-52
2023/07/03 01:05:05;;;;;;;11.43;10.00;;;;;;;15.12;80.01;98194.00;4154944;28;20255;-51
2023/07/03 01:07:13;;;;;;;9.25;8.30;;;;;;;15.00;80.49;98190.78;4151464;28;20367;-52
2023/07/03 01:09:16;;;;;;;14.13;9.95;;;;;;;14.95;81.14;98198.22;4142424;28;20293;-53
2023/07/03 01:11:19;;;;;;;16.00;10.68;;;;;;;15.02;81.40;98188.53;4141964;28;20202;-53
2023/07/03 01:13:21;;;;;;;11.00;9.88;;;;;;;14.90;81.66;98190.81;4152853;28;20209;-53
2023/07/03 01:15:27;;;;;;;11.93;10.05;;;;;;;14.84;81.84;98191.97;4145620;28;20618;-52
2023/07/03 01:17:29;;;;;;;12.73;10.30;;;;;;;14.81;81.71;98187.03;4137845;28;20267;-52
2023/07/03 01:19:32;;;;;;;11.43;9.65;;;;;;;14.77;81.47;98194.22;4140117;28;20215;-52
2023/07/03 01:21:44;;;;;;;11.05;10.05;;;;;;;14.62;81.64;98194.31;4138610;28;20217;-52
2023/07/03 01:23:52;;;;;;;10.55;9.43;;;;;;;14.51;83.06;98195.44;4139754;28;20213;-52
2023/07/03 01:25:54;;;;;;;13.23;10.18;;;;;;;14.58;82.17;98192.41;4150512;28;20236;-52
2023/07/03 01:27:58;;;;;;;13.52;10.13;;;;;;;14.66;81.86;98200.06;4137261;28;20206;-52
2023/07/03 01:30:01;;;;;;;12.45;9.20;;;;;;;14.66;81.61;98200.06;4153038;28;20646;-52
2023/07/03 01:32:05;;;;;;;15.82;9.40;;;;;;;14.76;81.51;98200.84;4150318;28;20710;-52
2023/07/03 01:34:08;;;;;;;11.52;9.68;;;;;;;14.77;81.34;98204.44;4144177;28;20214;-51
2023/07/03 01:36:12;;;;;;;11.95;9.57;;;;;;;14.76;81.27;98206.34;4137429;28;20240;-53
2023/07/03 01:38:15;;;;;;;10.20;9.20;;;;;;;14.75;81.44;98193.69;4142710;28;20248;-53
2023/07/03 01:40:20;;;;;;;16.10;10.68;;;;;;;14.68;81.63;98208.84;4142929;28;20661;-53
2023/07/03 01:42:24;;;;;;;13.60;8.95;;;;;;;14.83;81.48;98201.34;4155664;28;20209;-53
2023/07/03 01:44:26;;;;;;;12.45;10.02;;;;;;;14.57;82.03;98208.09;4134207;28;20681;-52
2023/07/03 01:46:27;;;;;;;11.75;10.07;;;;;;;14.58;82.43;98211.69;4137647;28;20253;-52
2023/07/03 01:48:33;;;;;;;11.00;8.63;;;;;;;14.66;82.00;98200.06;4126400;28;20263;-53
2023/07/03 01:50:36;;;;;;;10.40;9.40;;;;;;;14.60;82.13;98196.53;4152004;28;20200;-53
2023/07/03 01:52:55;;;;;;;15.75;10.25;;;;;;;14.60;81.87;98202.03;4138483;28;20261;-53
2023/07/03 01:55:04;;;;;;;12.38;9.73;;;;;;;14.62;82.14;98202.56;4141788;28;20331;-52
2023/07/03 01:57:07;;;;;;;11.15;10.07;;;;;;;14.63;82.21;98187.69;4152429;28;20251;-52
2023/07/03 01:59:12;;;;;;;11.52;9.65;;;;;;;14.60;82.25;98199.28;4152773;28;20295;-53
2023/07/03 02:01:24;;;;;;;11.27;10.13;;;;;;;14.59;82.48;98194.88;4141930;28;20232;-52
2023/07/03 02:04:05;;;;;;;14.75;10.85;;;;;;;14.60;82.62;98203.94;4147713;28;20210;-53
2023/07/03 02:06:40;;;;;;;13.68;10.35;;;;;;;14.69;82.55;98194.81;4148839;28;20415;-53
2023/07/03 02:08:42;;;;;;;16.30;9.85;;;;;;;14.60;82.53;98204.78;4135974;28;20564;-53
2023/07/03 02:10:44;;;;;;;12.00;10.30;;;;;;;14.66;82.63;98211.09;4150210;28;20212;-54
2023/07/03 02:12:46;;;;;;;12.10;10.82;;;;;;;14.72;82.49;98194.25;4149884;28;20667;-54
2023/07/03 02:14:48;;;;;;;10.48;9.38;;;;;;;14.65;82.49;98203.94;4149581;28;20237;-55
2023/07/03 02:16:52;;;;;;;15.75;10.68;;;;;;;14.62;82.66;98199.81;4153057;28;20670;-55
2023/07/03 02:18:55;;;;;;;12.55;9.90;;;;;;;14.59;82.51;98205.06;4143124;28;20674;-54
2023/07/03 02:20:57;;;;;;;11.77;10.55;;;;;;;14.51;83.02;98205.66;4138696;28;21173;-53
2023/07/03 02:22:59;;;;;;;15.98;9.77;;;;;;;14.51;83.38;98205.66;4150858;28;20209;-54
2023/07/03 02:25:01;;;;;;;14.68;10.07;;;;;;;14.50;83.54;98206.78;4142461;28;20296;-54
2023/07/03 02:27:03;;;;;;;11.00;9.90;;;;;;;14.43;83.65;98209.81;4136881;28;20237;-52
2023/07/03 02:29:05;;;;;;;11.73;10.38;;;;;;;14.43;83.66;98206.25;4143120;28;20259;-55
2023/07/03 02:31:07;;;;;;;11.70;9.50;;;;;;;14.41;83.98;98209.28;4136402;28;20654;-53
2023/07/03 02:33:10;;;;;;;12.40;11.13;;;;;;;14.38;83.93;98209.81;4153291;28;20209;-54
2023/07/03 02:35:12;;;;;;;14.88;9.77;;;;;;;14.37;84.44;98202.69;4150677;28;20227;-56
2023/07/03 02:37:14;;;;;;;10.50;9.43;;;;;;;14.40;84.29;98206.81;4139821;28;20886;-54
2023/07/03 02:39:16;;;;;;;11.63;10.43;;;;;;;14.37;84.20;98213.69;4142864;28;20236;-54
2023/07/03 02:41:21;;;;;;;11.60;10.43;;;;;;;14.36;84.24;98203.78;4137751;28;20312;-55
2023/07/03 02:43:23;;;;;;;12.88;10.93;;;;;;;14.37;84.63;98197.19;4126141;28;20292;-53
2023/07/03 02:45:25;;;;;;;13.35;10.77;;;;;;;14.34;84.67;98206.00;4149477;28;20695;-52
2023/07/03 02:47:26;;;;;;;12.82;10.18;;;;;;;14.30;84.66;98213.16;4154607;28;20242;-54
2023/07/03 02:49:29;;;;;;;10.75;9.57;;;;;;;14.26;84.64;98214.84;4149859;28;20201;-53
2023/07/03 02:51:31;;;;;;;11.73;9.60;;;;;;;14.29;84.93;98213.47;4136273;28;20226;-52
2023/07/03 02:53:33;;;;;;;11.30;10.13;;;;;;;14.32;85.11;98210.97;4136472;28;20214;-53
2023/07/03 02:55:35;;;;;;;12.88;11.57;;;;;;;14.26;84.93;98216.78;4136433;28;20251;-54
2023/07/03 02:57:37;;;;;;;15.07;10.70;;;;;;;14.23;85.53;98212.66;4134112;28;20213;-52
2023/07/03 02:59:39;;;;;;;13.43;10.10;;;;;;;14.19;85.51;98211.59;4141237;28;20209;-52
2023/07/03 03:01:40;;;;;;;11.00;9.82;;;;;;;14.11;85.57;98214.84;4137067;28;20730;-52
2023/07/03 03:03:44;;;;;;;11.55;9.60;;;;;;;14.08;85.81;98220.94;4138997;28;20705;-52
2023/07/03 03:05:46;;;;;;;10.57;9.38;;;;;;;14.14;85.81;98217.06;4143132;28;20209;-52
2023/07/03 03:07:48;;;;;;;14.57;10.40;;;;;;;14.09;85.83;98219.81;4137754;28;20205;-53
2023/07/03 03:09:50;;;;;;;11.45;10.30;;;;;;;14.07;86.24;98213.78;4135741;28;20232;-54
2023/07/03 03:11:52;;;;;;;11.25;10.15;;;;;;;13.98;86.47;98220.94;4137408;28;20301;-53
2023/07/03 03:13:53;;;;;;;13.57;10.45;;;;;;;14.02;86.58;98218.47;4136875;28;20218;-52
2023/07/03 03:15:55;;;;;;;22.70;9.95;;;;;;;14.07;86.78;98212.94;4135853;28;20615;-53
2023/07/03 03:17:57;;;;;;;11.15;10.07;;;;;;;13.96;86.88;98212.16;4138436;28;20236;-52
2023/07/03 03:19:59;;;;;;;12.10;10.30;;;;;;;13.97;86.92;98213.78;4153041;28;20267;-52
2023/07/03 03:22:01;;;;;;;11.05;9.27;;;;;;;13.98;86.76;98218.19;4137981;28;20253;-53
2023/07/03 03:24:03;;;;;;;11.90;10.77;;;;;;;13.97;86.79;98232.25;4138507;28;20221;-54
2023/07/03 03:26:06;;;;;;;13.90;10.30;;;;;;;13.96;87.11;98216.84;4131922;28;20226;-54
2023/07/03 03:28:09;;;;;;;12.55;10.55;;;;;;;13.88;87.60;98231.97;4140851;28;20214;-52
2023/07/03 03:30:11;;;;;;;12.85;10.38;;;;;;;13.97;87.62;98230.31;4135605;28;20281;-54
2023/07/03 03:32:13;;;;;;;15.65;10.55;;;;;;;13.85;88.16;98231.72;4149325;28;20220;-55
2023/07/03 03:34:15;;;;;;;12.55;11.30;;;;;;;13.86;87.85;98228.69;4142068;28;20229;-53
2023/07/03 03:36:17;;;;;;;11.60;10.45;;;;;;;13.85;88.08;98227.06;4138767;28;20222;-52
2023/07/03 03:38:19;;;;;;;11.30;10.18;;;;;;;13.87;87.90;98224.84;4148167;28;20757;-52
2023/07/03 03:40:21;;;;;;;18.45;10.63;;;;;;;13.85;87.86;98237.22;4151487;28;20226;-52
2023/07/03 03:42:22;;;;;;;11.32;9.95;;;;;;;13.83;88.18;98229.22;4150019;28;20295;-54
2023/07/03 03:44:24;;;;;;;17.00;11.38;;;;;;;13.90;88.05;98231.72;4139857;28;20204;-52
2023/07/03 03:46:26;;;;;;;16.05;11.00;;;;;;;13.86;88.24;98227.84;4138844;28;20237;-53
2023/07/03 03:48:30;;;;;;;13.65;11.38;;;;;;;13.83;88.51;98226.47;4145904;28;20753;-53
2023/07/03 03:50:32;;;;;;;12.15;9.93;;;;;;;13.81;88.52;98225.09;4149747;28;20323;-52
2023/07/03 03:52:34;;;;;;;11.73;10.52;;;;;;;13.82;88.64;98222.09;4150184;28;20690;-55
2023/07/03 03:54:36;;;;;;;12.88;11.57;;;;;;;13.88;88.81;98220.97;4145112;28;20208;-53
2023/07/03 03:56:37;;;;;;;17.08;10.73;;;;;;;13.81;88.51;98214.94;4147106;28;20865;-52
2023/07/03 03:58:42;;;;;;;12.93;11.65;;;;;;;13.84;88.73;98214.38;4134992;28;20206;-52
2023/07/03 04:00:45;;;;;;;13.20;10.93;;;;;;;13.76;88.51;98225.94;4135554;28;20234;-53
2023/07/03 04:02:48;;;;;;;14.00;10.10;;;;;;;13.74;88.69;98230.06;4147509;28;20938;-52
2023/07/03 04:04:50;;;;;;;12.15;10.88;;;;;;;13.76;88.79;98238.88;4141160;28;20209;-52
2023/07/03 04:06:52;;;;;;;12.15;10.85;;;;;;;13.73;89.08;98240.25;4148559;28;21850;-52
2023/07/03 04:08:59;;;;;;;15.23;11.02;;;;;;;13.74;89.12;98250.16;4137315;28;20229;-53
2023/07/03 04:11:01;;;;;;;11.90;9.98;;;;;;;13.77;89.26;98252.34;4134300;28;20205;-52
2023/07/03 04:13:03;;;;;;;12.68;10.45;;;;;;;13.74;89.42;98252.91;4137102;28;20754;-52
2023/07/03 04:15:05;;;;;;;12.15;10.55;;;;;;;13.83;90.01;98244.94;4151226;28;20205;-53
2023/07/03 04:17:09;;;;;;;14.55;10.65;;;;;;;13.76;89.86;98239.69;4137532;28;20225;-52
2023/07/03 04:19:11;;;;;;;13.77;9.20;;;;;;;13.67;90.24;98235.88;4133221;28;20739;-52
2023/07/03 04:21:12;;;;;;;10.73;9.55;;;;;;;13.72;90.60;98235.88;4147274;28;20252;-53
2023/07/03 04:23:17;;;;;;;12.50;10.65;;;;;;;13.79;90.16;98238.31;4135004;28;20210;-53
2023/07/03 04:25:19;;;;;;;12.63;9.90;;;;;;;13.80;90.24;98235.31;4138462;28;20208;-53
2023/07/03 04:27:20;;;;;;;11.20;10.02;;;;;;;13.78;90.09;98243.00;4136241;28;20234;-52
2023/07/03 04:29:22;;;;;;;14.07;10.10;;;;;;;13.85;90.00;98240.81;4139556;28;20213;-52
2023/07/03 04:31:25;;;;;;;12.77;10.45;;;;;;;13.86;90.00;98245.19;4139160;28;20210;-52
2023/07/03 04:33:26;;;;;;;11.95;10.70;;;;;;;13.89;89.96;98250.13;4139951;28;20581;-53
2023/07/03 04:35:28;;;;;;;14.00;10.25;;;;;;;13.96;89.98;98249.88;4141292;28;20259;-52
2023/07/03 04:37:30;;;;;;;44.85;12.43;;;;;;;14.07;90.12;98263.31;4153983;28;20345;-53
2023/07/03 04:39:32;;;;;;;33.95;11.27;;;;;;;14.09;90.23;98254.78;4151276;28;20853;-53
2023/07/03 04:41:34;;;;;;;40.78;11.93;;;;;;;14.05;90.26;98260.03;4137682;28;20260;-53
2023/07/03 04:43:36;;;;;;;49.28;10.57;;;;;;;14.02;90.54;98260.56;4150131;28;20232;-53
2023/07/03 04:45:42;;;;;;;37.92;11.55;;;;;;;14.13;90.84;98262.19;4125702;28;20634;-53
2023/07/03 04:47:44;;;;;;;25.27;10.65;;;;;;;14.08;91.92;98258.63;4139523;28;20234;-53
2023/07/03 04:49:48;;;;;;;14.05;10.43;;;;;;;14.23;92.11;98266.88;4142861;28;20251;-53
2023/07/03 04:51:52;;;;;;;12.68;10.73;;;;;;;14.18;92.58;98270.44;4153672;28;20994;-52
2023/07/03 04:53:54;;;;;;;18.20;10.18;;;;;;;14.35;91.14;98265.47;4139393;28;20217;-52
2023/07/03 04:55:55;;;;;;;19.05;9.35;;;;;;;14.13;93.15;98278.72;4141438;28;20229;-53
2023/07/03 04:57:59;;;;;;;17.50;10.15;;;;;;;14.22;92.70;98279.81;4142316;28;20209;-53
2023/07/03 05:00:02;;;;;;;20.48;11.05;;;;;;;14.08;93.39;98273.22;4176807;28;20218;-53
2023/07/03 05:02:04;;;;;;;17.63;11.10;;;;;;;14.14;93.30;98280.34;4143736;28;20233;-53
2023/07/03 05:04:06;;;;;;;13.20;10.02;;;;;;;14.29;92.33;98272.09;4143133;28;20214;-53
2023/07/03 05:06:09;;;;;;;9.48;8.63;;;;;;;14.33;92.04;98278.69;4154891;28;20288;-52
2023/07/03 05:08:11;;;;;;;25.25;9.48;;;;;;;14.45;91.36;98281.97;4153166;28;20201;-52
2023/07/03 05:10:14;;;;;;;15.40;12.85;;;;;;;14.35;92.02;98281.13;4150540;28;20262;-52
2023/07/03 05:12:16;;;;;;;16.20;11.77;;;;;;;14.29;92.50;98279.53;4138703;28;20292;-53
2023/07/03 05:14:18;;;;;;;14.63;11.48;;;;;;;14.38;91.59;98286.09;4148700;28;20267;-52
2023/07/03 05:16:26;;;;;;;13.43;8.75;;;;;;;14.47;91.90;98296.28;4138201;28;20288;-52
2023/07/03 05:18:29;;;;;;;13.48;8.02;;;;;;;14.61;90.56;98291.81;4136878;28;20209;-52
2023/07/03 05:20:30;;;;;;;10.43;7.38;;;;;;;14.73;90.41;98299.75;4125073;28;20253;-52
2023/07/03 05:22:32;;;;;;;15.85;8.18;;;;;;;14.83;90.03;98300.53;4127256;28;20229;-52
2023/07/03 05:24:34;;;;;;;14.43;7.50;;;;;;;15.00;89.26;98301.00;4145709;28;20225;-52
2023/07/03 05:26:36;;;;;;;14.20;6.82;;;;;;;15.01;89.00;98302.63;4154927;28;20229;-52
2023/07/03 05:28:38;;;;;;;11.75;7.30;;;;;;;15.07;88.18;98307.03;4139240;28;20209;-52
2023/07/03 05:30:39;;;;;;;16.38;6.95;;;;;;;15.21;86.79;98313.56;4153244;28;20202;-52
2023/07/03 05:32:41;;;;;;;13.45;6.13;;;;;;;15.32;85.92;98309.66;4136851;28;20659;-53
2023/07/03 05:34:43;;;;;;;14.52;6.50;;;;;;;15.37;85.20;98317.09;4138579;28;21017;-51
2023/07/03 05:36:46;;;;;;;12.55;6.85;;;;;;;15.45;85.20;98313.72;4137025;28;20722;-51
2023/07/03 05:38:48;;;;;;;10.40;5.03;;;;;;;15.35;84.04;98309.09;4154341;28;20205;-52
2023/07/03 05:40:50;;;;;;;14.30;5.55;;;;;;;15.41;84.31;98323.66;4150058;28;20212;-52
2023/07/03 05:42:52;;;;;;;14.48;6.68;;;;;;;15.36;84.21;98321.75;4139351;28;20244;-51
2023/07/03 05:44:54;;;;;;;15.73;5.15;;;;;;;15.46;84.01;98329.97;4138754;28;20648;-51
2023/07/03 05:46:55;;;;;;;13.90;6.15;;;;;;;15.58;83.52;98324.94;4153381;28;20229;-51
2023/07/03 05:48:57;;;;;;;10.57;5.68;;;;;;;15.50;83.19;98328.28;4134693;28;20220;-51
2023/07/03 05:50:59;;;;;;;13.63;6.35;;;;;;;15.62;83.27;98326.00;4139995;28;20209;-51
2023/07/03 05:53:01;;;;;;;10.75;5.28;;;;;;;15.49;83.00;98332.16;4139544;28;20209;-51
2023/07/03 05:55:04;;;;;;;11.45;5.70;;;;;;;15.65;82.73;98333.72;4137015;28;20206;-51
2023/07/03 05:57:17;;;;;;;10.00;5.30;;;;;;;15.76;81.76;98335.28;4148867;28;20259;-51
2023/07/03 05:59:29;;;;;;;10.65;5.13;;;;;;;15.77;81.51;98336.91;4136946;28;20209;-51
2023/07/03 06:01:32;;;;;;;13.80;5.57;;;;;;;16.01;81.19;98337.00;4137519;28;20655;-52
2023/07/03 06:03:34;;;;;;;10.13;5.80;;;;;;;16.21;80.31;98339.56;4144335;28;20250;-52
2023/07/03 06:05:36;;;;;;;8.60;5.85;;;;;;;16.13;79.83;98331.91;4128299;28;20229;-52
2023/07/03 06:07:38;;;;;;;7.60;5.28;;;;;;;16.18;79.56;98329.97;4137704;28;20346;-52
2023/07/03 06:09:41;;;;;;;23.60;4.43;;;;;;;16.13;79.47;98327.25;4138774;28;20209;-52
2023/07/03 06:11:42;;;;;;;12.65;5.55;;;;;;;16.23;80.42;98318.84;4138113;28;20224;-52
2023/07/03 06:13:44;;;;;;;11.27;5.13;;;;;;;16.41;77.57;98318.16;4152244;28;20638;-52
2023/07/03 06:15:46;;;;;;;12.10;4.93;;;;;;;16.55;76.98;98330.16;4140089;28;20205;-52
2023/07/03 06:17:48;;;;;;;12.27;5.25;;;;;;;16.98;76.27;98329.91;4138038;28;20212;-52
2023/07/03 06:19:50;;;;;;;9.88;4.93;;;;;;;17.32;74.40;98335.28;4140454;28;20248;-52
2023/07/03 06:21:52;;;;;;;14.82;4.53;;;;;;;17.75;72.14;98339.63;4153460;28;20232;-52
2023/07/03 06:23:54;;;;;;;6.85;3.33;;;;;;;17.76;69.12;98335.75;4140136;28;20242;-51
2023/07/03 06:25:56;;;;;;;8.85;4.10;;;;;;;17.76;68.62;98342.13;4143302;28;20260;-51
2023/07/03 06:27:58;;;;;;;10.70;4.03;;;;;;;17.60;68.01;98337.91;4143770;28;20307;-51
2023/07/03 06:30:00;;;;;;;13.45;4.15;;;;;;;17.54;68.63;98341.06;4144447;28;20746;-52
2023/07/03 06:32:02;;;;;;;6.75;3.65;;;;;;;17.43;68.47;98337.63;4138007;28;20300;-52
2023/07/03 06:34:04;;;;;;;9.40;3.50;;;;;;;17.42;69.47;98346.22;4124132;28;20218;-51
2023/07/03 06:36:06;;;;;;;11.23;3.28;;;;;;;17.34;70.29;98349.63;4143401;28;20229;-51
2023/07/03 06:38:08;;;;;;;10.70;3.38;;;;;;;17.09;69.06;98348.03;4144235;28;20252;-52
2023/07/03 06:40:11;;;;;;;4.90;3.22;;;;;;;17.12;69.33;98346.59;4138517;28;20267;-52
2023/07/03 06:42:13;;;;;;;10.73;3.67;;;;;;;17.25;69.34;98345.88;4139818;28;20335;-52
2023/07/03 06:44:16;;;;;;;9.43;3.75;;;;;;;17.32;69.43;98343.56;4138456;28;20218;-52
2023/07/03 06:46:19;;;;;;;8.43;3.20;;;;;;;17.21;68.63;98351.19;4133922;28;21885;-52
2023/07/03 06:48:20;;;;;;;9.70;3.55;;;;;;;17.29;68.69;98346.91;4151516;28;20208;-51
2023/07/03 06:50:22;;;;;;;8.13;3.60;;;;;;;17.35;69.08;98356.78;4150411;28;20689;-52
2023/07/03 06:52:24;;;;;;;6.03;3.42;;;;;;;17.40;68.48;98354.00;4150452;28;20209;-51
2023/07/03 06:54:26;;;;;;;7.20;3.55;;;;;;;17.34;68.49;98357.91;4138355;28;20209;-51
2023/07/03 06:56:28;;;;;;;7.43;3.72;;;;;;;17.42;69.17;98344.28;4137303;28;20288;-51
2023/07/03 06:58:31;;;;;;;7.28;2.90;;;;;;;17.44;67.79;98346.75;4135738;28;20210;-52
2023/07/03 07:00:33;;;;;;;4.25;2.33;;;;;;;17.35;66.03;98351.25;4138271;28;20214;-51
2023/07/03 07:02:35;;;;;;;10.73;3.28;;;;;;;17.24;65.64;98355.28;4149469;28;20664;-53
2023/07/03 07:04:37;;;;;;;6.22;2.08;;;;;;;17.37;64.88;98360.13;4128241;28;20297;-51
2023/07/03 07:06:39;;;;;;;8.10;2.55;;;;;;;17.38;64.34;98345.19;4151638;28;20229;-51
2023/07/03 07:08:42;;;;;;;4.72;2.17;;;;;;;17.45;63.42;98362.25;4143625;28;20213;-51
2023/07/03 07:10:44;;;;;;;6.00;1.95;;;;;;;17.55;62.97;98351.84;4137812;28;20213;-53
2023/07/03 07:12:46;;;;;;;9.80;3.08;;;;;;;17.54;62.38;98346.59;4148485;28;20206;-52
2023/07/03 07:14:47;;;;;;;6.72;2.30;;;;;;;17.39;62.65;98355.13;4131788;28;20210;-52
2023/07/03 07:16:50;;;;;;;6.15;2.10;;;;;;;17.66;63.81;98369.94;4151956;28;20216;-52
2023/07/03 07:18:54;;;;;;;4.85;2.00;;;;;;;17.61;61.79;98361.72;4137215;28;20210;-52
2023/07/03 07:20:56;;;;;;;5.75;2.22;;;;;;;17.77;62.31;98365.06;4147422;28;20216;-52
2023/07/03 07:22:58;;;;;;;4.03;2.15;;;;;;;17.83;62.37;98358.31;4137006;28;20221;-53
2023/07/03 07:25:00;;;;;;;5.80;1.90;;;;;;;17.97;62.28;98353.66;4139146;28;20209;-53
2023/07/03 07:27:04;;;;;;;4.88;2.20;;;;;;;18.07;61.32;98359.06;4150607;28;20237;-53
2023/07/03 07:29:06;;;;;;;4.75;2.35;;;;;;;18.03;61.11;98355.25;4137474;28;20214;-52
2023/07/03 07:31:08;;;;;;;10.48;2.55;;;;;;;18.16;61.31;98354.47;4137025;28;20235;-52
2023/07/03 07:33:10;;;;;;;6.18;2.58;;;;;;;18.10;60.81;98359.28;4150875;28;20557;-52
2023/07/03 07:35:12;;;;;;;5.13;3.05;;;;;;;17.93;60.75;98355.41;4137360;28;20220;-52
2023/07/03 07:37:13;;;;;;;7.50;2.80;;;;;;;17.92;60.33;98346.28;4138521;28;20275;-52
2023/07/03 07:39:18;;;;;;;10.07;2.42;;;;;;;18.00;60.91;98350.31;4137321;28;20273;-52
2023/07/03 07:41:20;;;;;;;7.72;2.47;;;;;;;18.01;60.67;98349.19;4143928;28;20194;-51
2023/07/03 07:43:22;;;;;;;8.88;3.30;;;;;;;18.08;61.02;98353.22;4128567;28;20233;-52
2023/07/03 07:45:24;;;;;;;7.45;2.78;;;;;;;18.12;61.13;98350.69;4135264;28;20214;-52
2023/07/03 07:47:26;;;;;;;5.88;2.83;;;;;;;17.91;61.59;98357.69;4134477;28;20229;-52
2023/07/03 07:49:27;;;;;;;5.57;2.60;;;;;;;17.84;62.69;98354.47;4139577;28;20264;-52
2023/07/03 07:51:30;;;;;;;3.20;1.90;;;;;;;17.88;63.65;98358.25;4137661;28;20262;-51
2023/07/03 07:53:32;;;;;;;6.90;2.63;;;;;;;17.70;64.35;98365.47;4135196;28;20594;-53
2023/07/03 07:55:36;;;;;;;4.55;2.88;;;;;;;17.61;64.84;98370.03;4136989;28;20221;-52
2023/07/03 07:57:37;;;;;;;6.53;2.60;;;;;;;17.49;65.62;98368.81;4137062;28;20206;-52
2023/07/03 07:59:39;;;;;;;7.47;2.95;;;;;;;17.41;66.97;98366.72;4135050;28;20241;-53
2023/07/03 08:01:41;;;;;;;7.18;2.92;;;;;;;17.36;67.47;98375.03;4148872;28;20205;-52
2023/07/03 08:03:46;;;;;;;5.57;2.88;;;;;;;17.32;68.04;98372.03;4143320;28;20596;-52
2023/07/03 08:05:48;;;;;;;8.13;2.58;;;;;;;17.39;68.31;98369.75;4167071;28;20661;-52
2023/07/03 08:07:52;;;;;;;7.47;2.80;;;;;;;17.56;68.64;98370.09;4137427;28;20245;-52
2023/07/03 08:09:54;;;;;;;6.15;3.47;;;;;;;17.60;68.52;98384.16;4137294;28;20212;-53
2023/07/03 08:11:55;;;;;;;5.22;2.25;;;;;;;17.62;68.33;98373.59;4151204;28;20254;-52
2023/07/03 08:13:57;;;;;;;6.60;3.38;;;;;;;17.59;68.63;98385.28;4134754;28;20202;-53
2023/07/03 08:15:59;;;;;;;6.93;3.38;;;;;;;17.44;69.61;98388.25;4137039;28;20249;-52
2023/07/03 08:18:01;;;;;;;8.90;2.67;;;;;;;17.52;70.69;98391.16;4149520;28;20235;-53
2023/07/03 08:20:10;;;;;;;7.55;2.75;;;;;;;17.55;71.08;98384.22;4136968;28;20264;-52
2023/07/03 08:22:14;;;;;;;3.47;2.70;;;;;;;17.59;71.72;98388.06;4136984;28;20214;-52
2023/07/03 08:24:17;;;;;;;5.00;2.97;;;;;;;17.63;71.88;98386.31;4133890;28;20268;-52
2023/07/03 08:26:22;;;;;;;5.45;2.25;;;;;;;17.48;72.50;98389.31;4137188;28;20225;-53
2023/07/03 08:28:23;;;;;;;4.82;2.22;;;;;;;17.56;72.74;98385.84;4148828;28;20209;-52
2023/07/03 08:30:25;;;;;;;6.18;2.83;;;;;;;17.70;73.27;98381.22;4151325;28;20213;-53
2023/07/03 08:32:27;;;;;;;5.07;2.33;;;;;;;17.79;73.58;98391.31;4148531;28;20300;-53
2023/07/03 08:34:29;;;;;;;6.63;2.50;;;;;;;17.80;73.62;98397.69;4142913;28;20213;-52
2023/07/03 08:36:31;;;;;;;7.47;2.72;;;;;;;17.86;73.35;98396.50;4136481;28;20237;-52
2023/07/03 08:38:36;;;;;;;4.38;2.35;;;;;;;17.96;73.03;98399.94;4148930;28;20225;-52
2023/07/03 08:40:38;;;;;;;5.32;2.10;;;;;;;17.86;73.84;98396.50;4137637;28;20675;-52
2023/07/03 08:42:53;;;;;;;7.20;2.50;;;;;;;17.98;73.07;98399.66;4133131;28;20229;-51
2023/07/03 08:44:57;;;;;;;4.30;1.95;;;;;;;18.13;73.37;98388.31;4150222;28;20666;-51
2023/07/03 08:47:00;;;;;;;3.00;1.73;;;;;;;18.36;72.16;98390.16;4136976;28;20232;-52
2023/07/03 08:49:13;;;;;;;5.47;2.40;;;;;;;18.70;71.12;98385.94;4153522;28;20295;-53
2023/07/03 08:51:18;;;;;;;6.63;2.50;;;;;;;18.69;71.57;98383.47;4136156;28;20202;-51
2023/07/03 08:53:24;;;;;;;4.75;2.65;;;;;;;18.57;71.59;98385.94;4152535;28;20202;-52
2023/07/03 08:55:31;;;;;;;8.93;3.05;;;;;;;18.97;69.89;98380.44;4137198;28;20240;-52
2023/07/03 08:57:36;;;;;;;4.63;2.83;;;;;;;19.20;68.80;98384.19;4148206;28;20923;-51
2023/07/03 08:59:39;;;;;;;4.60;2.72;;;;;;;19.36;68.76;98382.72;4135681;28;20213;-52
2023/07/03 09:01:51;;;;;;;5.22;2.67;;;;;;;19.42;68.71;98387.88;4137539;28;20260;-53
2023/07/03 09:03:59;;;;;;;5.38;2.33;;;;;;;19.52;67.33;98381.28;4142764;28;20331;-53
2023/07/03 09:06:18;;;;;;;3.45;2.38;;;;;;;19.47;67.90;98384.16;4150513;28;20819;-52
2023/07/03 09:08:29;;;;;;;5.68;2.58;;;;;;;19.29;67.61;98380.38;4121833;28;20206;-51
2023/07/03 09:10:39;;;;;;;5.45;2.15;;;;;;;18.79;68.50;98377.75;4150135;28;20778;-51
2023/07/03 09:13:03;;;;;;;5.15;2.00;;;;;;;18.79;68.90;98378.56;4122986;28;20268;-52
2023/07/03 09:15:13;;;;;;;4.35;2.33;;;;;;;18.55;69.57;98368.78;4138729;28;20256;-52
2023/07/03 09:17:15;;;;;;;8.43;3.17;;;;;;;18.53;68.93;98376.59;4153162;28;20941;-52
2023/07/03 09:19:22;;;;;;;8.60;2.60;;;;;;;18.74;68.74;98375.06;4152103;28;20216;-52
2023/07/03 09:21:24;;;;;;;6.60;2.63;;;;;;;18.79;68.72;98375.00;4145355;28;20451;-52
2023/07/03 09:23:38;;;;;;;4.88;2.83;;;;;;;18.80;69.42;98376.63;4153596;28;20232;-52
2023/07/03 09:25:43;;;;;;;3.80;2.90;;;;;;;18.80;68.66;98369.16;4138383;28;20536;-53
2023/07/03 09:27:45;;;;;;;3.90;2.47;;;;;;;18.62;69.38;98380.28;4153125;28;20244;-52
2023/07/03 09:29:50;;;;;;;5.20;2.85;;;;;;;18.75;69.24;98377.56;4137936;28;20213;-52
2023/07/03 09:31:53;;;;;;;5.25;2.80;;;;;;;18.93;69.23;98384.13;4153399;28;20205;-53
2023/07/03 09:33:55;;;;;;;4.20;2.20;;;;;;;18.80;67.05;98391.31;4151445;28;20777;-51